sensor_id;sensor_type;location;lat;lon;timestamp;temperature;humidity
1107;DHT22;540;49.448;8.612;2023-05-17T00:00:25;10.80;79.20
1107;DHT22;540;49.448;8.612;2023-05-17T00:02:52;10.80;78.80
1107;DHT22;540;49.448;8.612;2023-05-17T00:05:22;10.60;79.20
1107;DHT22;540;49.448;8.612;2023-05-17T00:07:50;10.70;79.30
1107;DHT22;540;49.448;8.612;2023-05-17T00:10:18;11.00;79.50
1107;DHT22;540;49.448;8.612;2023-05-17T00:12:45;11.00;79.60
1107;DHT22;540;49.448;8.612;2023-05-17T00:15:13;10.70;79.00
1107;DHT22;540;49.448;8.612;2023-05-17T00:17:41;10.70;78.20
1107;DHT22;540;49.448;8.612;2023-05-17T00:20:10;10.80;78.30
1107;DHT22;540;49.448;8.612;2023-05-17T00:22:39;10.80;78.40
1107;DHT22;540;49.448;8.612;2023-05-17T00:25:08;10.60;78.00
1107;DHT22;540;49.448;8.612;2023-05-17T00:27:36;10.60;78.10
1107;DHT22;540;49.448;8.612;2023-05-17T00:30:05;10.60;78.60
1107;DHT22;540;49.448;8.612;2023-05-17T00:32:33;10.70;79.30
1107;DHT22;540;49.448;8.612;2023-05-17T00:35:01;10.60;79.30
1107;DHT22;540;49.448;8.612;2023-05-17T00:37:29;10.70;79.80
1107;DHT22;540;49.448;8.612;2023-05-17T00:39:58;10.50;79.70
1107;DHT22;540;49.448;8.612;2023-05-17T00:42:26;10.50;80.10
1107;DHT22;540;49.448;8.612;2023-05-17T00:44:54;10.40;79.80
1107;DHT22;540;49.448;8.612;2023-05-17T00:47:22;10.50;80.30
1107;DHT22;540;49.448;8.612;2023-05-17T00:49:50;10.40;80.50
1107;DHT22;540;49.448;8.612;2023-05-17T00:52:18;10.50;80.80
1107;DHT22;540;49.448;8.612;2023-05-17T00:54:46;10.30;80.80
1107;DHT22;540;49.448;8.612;2023-05-17T00:57:15;10.40;80.90
1107;DHT22;540;49.448;8.612;2023-05-17T00:59:43;10.40;81.50
1107;DHT22;540;49.448;8.612;2023-05-17T01:02:11;10.50;81.70
1107;DHT22;540;49.448;8.612;2023-05-17T01:04:40;10.50;82.00
1107;DHT22;540;49.448;8.612;2023-05-17T01:07:09;10.50;82.50
1107;DHT22;540;49.448;8.612;2023-05-17T01:09:37;10.30;82.20
1107;DHT22;540;49.448;8.612;2023-05-17T01:12:10;10.30;82.70
1107;DHT22;540;49.448;8.612;2023-05-17T01:14:50;10.30;83.60
1107;DHT22;540;49.448;8.612;2023-05-17T01:17:23;10.30;84.10
1107;DHT22;540;49.448;8.612;2023-05-17T01:20:01;10.20;83.80
1107;DHT22;540;49.448;8.612;2023-05-17T01:22:39;10.40;84.40
1107;DHT22;540;49.448;8.612;2023-05-17T01:25:34;10.20;84.70
1107;DHT22;540;49.448;8.612;2023-05-17T01:28:04;10.30;85.50
1107;DHT22;540;49.448;8.612;2023-05-17T01:30:33;10.10;85.40
1107;DHT22;540;49.448;8.612;2023-05-17T01:33:03;10.20;86.90
1107;DHT22;540;49.448;8.612;2023-05-17T01:35:31;9.80;87.50
1107;DHT22;540;49.448;8.612;2023-05-17T01:37:59;9.50;88.50
1107;DHT22;540;49.448;8.612;2023-05-17T01:40:27;9.90;89.60
1107;DHT22;540;49.448;8.612;2023-05-17T01:42:59;10.00;89.70
1107;DHT22;540;49.448;8.612;2023-05-17T01:45:37;9.70;90.40
1107;DHT22;540;49.448;8.612;2023-05-17T01:48:14;10.20;89.90
1107;DHT22;540;49.448;8.612;2023-05-17T01:50:47;9.50;90.60
1107;DHT22;540;49.448;8.612;2023-05-17T01:53:20;9.80;91.10
1107;DHT22;540;49.448;8.612;2023-05-17T01:55:51;10.10;90.80
1107;DHT22;540;49.448;8.612;2023-05-17T01:58:21;9.80;91.40
1107;DHT22;540;49.448;8.612;2023-05-17T02:00:55;9.90;91.50
1107;DHT22;540;49.448;8.612;2023-05-17T02:03:23;9.90;91.80
1107;DHT22;540;49.448;8.612;2023-05-17T02:05:51;9.80;91.80
1107;DHT22;540;49.448;8.612;2023-05-17T02:08:19;9.80;92.00
1107;DHT22;540;49.448;8.612;2023-05-17T02:10:46;9.50;92.20
1107;DHT22;540;49.448;8.612;2023-05-17T02:13:14;9.80;92.60
1107;DHT22;540;49.448;8.612;2023-05-17T02:15:42;9.70;92.50
1107;DHT22;540;49.448;8.612;2023-05-17T02:18:11;9.90;92.50
1107;DHT22;540;49.448;8.612;2023-05-17T02:20:39;9.90;92.40
1107;DHT22;540;49.448;8.612;2023-05-17T02:23:07;9.20;92.10
1107;DHT22;540;49.448;8.612;2023-05-17T02:25:35;9.80;92.60
1107;DHT22;540;49.448;8.612;2023-05-17T02:28:03;9.70;93.00
1107;DHT22;540;49.448;8.612;2023-05-17T02:30:31;9.40;93.30
1107;DHT22;540;49.448;8.612;2023-05-17T02:32:58;9.50;93.80
1107;DHT22;540;49.448;8.612;2023-05-17T02:35:28;9.00;93.70
1107;DHT22;540;49.448;8.612;2023-05-17T02:37:56;9.60;93.80
1107;DHT22;540;49.448;8.612;2023-05-17T02:40:24;9.60;93.70
1107;DHT22;540;49.448;8.612;2023-05-17T02:42:52;9.80;93.60
1107;DHT22;540;49.448;8.612;2023-05-17T02:45:20;9.80;93.50
1107;DHT22;540;49.448;8.612;2023-05-17T02:47:48;9.80;93.40
1107;DHT22;540;49.448;8.612;2023-05-17T02:50:16;9.70;93.60
1107;DHT22;540;49.448;8.612;2023-05-17T02:52:45;9.70;93.70
1107;DHT22;540;49.448;8.612;2023-05-17T02:55:13;9.70;93.60
1107;DHT22;540;49.448;8.612;2023-05-17T02:57:41;9.70;93.80
1107;DHT22;540;49.448;8.612;2023-05-17T03:00:09;9.90;93.60
1107;DHT22;540;49.448;8.612;2023-05-17T03:02:37;9.90;93.60
1107;DHT22;540;49.448;8.612;2023-05-17T03:05:06;9.80;93.20
1107;DHT22;540;49.448;8.612;2023-05-17T03:07:34;9.40;93.50
1107;DHT22;540;49.448;8.612;2023-05-17T03:10:04;9.70;93.50
1107;DHT22;540;49.448;8.612;2023-05-17T03:12:32;9.60;93.70
1107;DHT22;540;49.448;8.612;2023-05-17T03:15:00;9.60;94.10
1107;DHT22;540;49.448;8.612;2023-05-17T03:17:28;9.80;94.30
1107;DHT22;540;49.448;8.612;2023-05-17T03:19:56;9.50;94.50
1107;DHT22;540;49.448;8.612;2023-05-17T03:22:24;9.40;94.60
1107;DHT22;540;49.448;8.612;2023-05-17T03:24:51;9.40;94.80
1107;DHT22;540;49.448;8.612;2023-05-17T03:27:21;9.50;94.90
1107;DHT22;540;49.448;8.612;2023-05-17T03:29:49;9.50;95.20
1107;DHT22;540;49.448;8.612;2023-05-17T03:32:16;9.50;95.20
1107;DHT22;540;49.448;8.612;2023-05-17T03:34:44;9.20;94.90
1107;DHT22;540;49.448;8.612;2023-05-17T03:37:12;9.50;96.00
1107;DHT22;540;49.448;8.612;2023-05-17T03:39:40;9.50;96.20
1107;DHT22;540;49.448;8.612;2023-05-17T03:42:07;9.20;96.00
1107;DHT22;540;49.448;8.612;2023-05-17T03:44:37;9.50;96.30
1107;DHT22;540;49.448;8.612;2023-05-17T03:47:05;9.70;96.20
1107;DHT22;540;49.448;8.612;2023-05-17T03:49:33;9.70;96.50
1107;DHT22;540;49.448;8.612;2023-05-17T03:52:00;9.50;96.80
1107;DHT22;540;49.448;8.612;2023-05-17T03:54:29;9.50;95.90
1107;DHT22;540;49.448;8.612;2023-05-17T03:56:56;9.70;95.70
1107;DHT22;540;49.448;8.612;2023-05-17T03:59:24;9.70;95.80
1107;DHT22;540;49.448;8.612;2023-05-17T04:01:53;9.80;94.80
1107;DHT22;540;49.448;8.612;2023-05-17T04:04:21;9.70;94.80
1107;DHT22;540;49.448;8.612;2023-05-17T04:06:49;9.60;95.20
1107;DHT22;540;49.448;8.612;2023-05-17T04:09:17;9.60;95.20
1107;DHT22;540;49.448;8.612;2023-05-17T04:11:45;9.80;95.80
1107;DHT22;540;49.448;8.612;2023-05-17T04:14:13;9.70;95.70
1107;DHT22;540;49.448;8.612;2023-05-17T04:16:41;9.70;95.60
1107;DHT22;540;49.448;8.612;2023-05-17T04:19:10;9.90;95.20
1107;DHT22;540;49.448;8.612;2023-05-17T04:21:38;9.80;95.10
1107;DHT22;540;49.448;8.612;2023-05-17T04:24:06;9.40;94.80
1107;DHT22;540;49.448;8.612;2023-05-17T04:26:34;9.90;95.10
1107;DHT22;540;49.448;8.612;2023-05-17T04:29:02;10.00;94.60
1107;DHT22;540;49.448;8.612;2023-05-17T04:31:30;9.90;94.50
1107;DHT22;540;49.448;8.612;2023-05-17T04:33:58;10.10;93.80
1107;DHT22;540;49.448;8.612;2023-05-17T04:36:28;9.90;94.10
1107;DHT22;540;49.448;8.612;2023-05-17T04:38:57;10.10;93.70
1107;DHT22;540;49.448;8.612;2023-05-17T04:41:24;10.10;93.80
1107;DHT22;540;49.448;8.612;2023-05-17T04:43:52;9.70;93.60
1107;DHT22;540;49.448;8.612;2023-05-17T04:46:20;10.40;93.50
1107;DHT22;540;49.448;8.612;2023-05-17T04:48:48;9.70;93.60
1107;DHT22;540;49.448;8.612;2023-05-17T04:51:16;9.60;94.00
1107;DHT22;540;49.448;8.612;2023-05-17T04:53:45;10.10;93.90
1107;DHT22;540;49.448;8.612;2023-05-17T04:56:13;10.10;93.60
1107;DHT22;540;49.448;8.612;2023-05-17T04:58:41;10.10;93.50
1107;DHT22;540;49.448;8.612;2023-05-17T05:01:09;10.10;93.10
1107;DHT22;540;49.448;8.612;2023-05-17T05:03:37;10.30;92.90
1107;DHT22;540;49.448;8.612;2023-05-17T05:06:05;10.40;92.80
1107;DHT22;540;49.448;8.612;2023-05-17T05:08:33;10.70;92.50
1107;DHT22;540;49.448;8.612;2023-05-17T05:11:04;10.50;91.90
1107;DHT22;540;49.448;8.612;2023-05-17T05:13:32;10.60;91.90
1107;DHT22;540;49.448;8.612;2023-05-17T05:15:59;10.70;92.10
1107;DHT22;540;49.448;8.612;2023-05-17T05:18:27;10.80;91.40
1107;DHT22;540;49.448;8.612;2023-05-17T05:20:55;10.90;91.40
1107;DHT22;540;49.448;8.612;2023-05-17T05:23:23;11.20;91.10
1107;DHT22;540;49.448;8.612;2023-05-17T05:25:51;10.90;90.70
1107;DHT22;540;49.448;8.612;2023-05-17T05:28:20;10.90;90.50
1107;DHT22;540;49.448;8.612;2023-05-17T05:30:48;10.90;90.60
1107;DHT22;540;49.448;8.612;2023-05-17T05:33:16;11.00;90.30
1107;DHT22;540;49.448;8.612;2023-05-17T05:35:44;11.10;89.90
1107;DHT22;540;49.448;8.612;2023-05-17T05:38:12;11.20;89.00
1107;DHT22;540;49.448;8.612;2023-05-17T05:40:40;11.50;89.10
1107;DHT22;540;49.448;8.612;2023-05-17T05:43:08;11.60;88.00
1107;DHT22;540;49.448;8.612;2023-05-17T05:45:37;11.70;86.90
1107;DHT22;540;49.448;8.612;2023-05-17T05:48:06;12.30;86.20
1107;DHT22;540;49.448;8.612;2023-05-17T05:50:34;12.30;84.50
1107;DHT22;540;49.448;8.612;2023-05-17T05:53:03;12.40;83.60
1107;DHT22;540;49.448;8.612;2023-05-17T05:55:44;12.60;83.70
1107;DHT22;540;49.448;8.612;2023-05-17T05:58:12;12.60;83.00
1107;DHT22;540;49.448;8.612;2023-05-17T06:00:41;12.30;81.40
1107;DHT22;540;49.448;8.612;2023-05-17T06:03:09;13.00;80.90
1107;DHT22;540;49.448;8.612;2023-05-17T06:05:37;13.40;81.00
1107;DHT22;540;49.448;8.612;2023-05-17T06:08:06;13.40;78.40
1107;DHT22;540;49.448;8.612;2023-05-17T06:10:34;13.30;76.80
1107;DHT22;540;49.448;8.612;2023-05-17T06:13:01;13.30;75.60
1107;DHT22;540;49.448;8.612;2023-05-17T06:15:30;13.40;74.90
1107;DHT22;540;49.448;8.612;2023-05-17T06:17:59;13.80;75.00
1107;DHT22;540;49.448;8.612;2023-05-17T06:20:27;14.00;74.30
1107;DHT22;540;49.448;8.612;2023-05-17T06:22:56;14.10;74.00
1107;DHT22;540;49.448;8.612;2023-05-17T06:25:23;14.30;72.90
1107;DHT22;540;49.448;8.612;2023-05-17T06:27:51;14.20;71.70
1107;DHT22;540;49.448;8.612;2023-05-17T06:30:19;14.30;71.20
1107;DHT22;540;49.448;8.612;2023-05-17T06:32:47;15.00;71.50
1107;DHT22;540;49.448;8.612;2023-05-17T06:35:17;15.20;70.90
1107;DHT22;540;49.448;8.612;2023-05-17T06:37:44;15.10;69.10
1107;DHT22;540;49.448;8.612;2023-05-17T06:40:13;16.80;64.00
1107;DHT22;540;49.448;8.612;2023-05-17T06:42:43;19.40;55.90
1107;DHT22;540;49.448;8.612;2023-05-17T06:45:11;20.90;51.20
1107;DHT22;540;49.448;8.612;2023-05-17T06:47:39;21.80;46.10
1107;DHT22;540;49.448;8.612;2023-05-17T06:50:08;22.40;43.90
1107;DHT22;540;49.448;8.612;2023-05-17T06:52:37;23.00;42.70
1107;DHT22;540;49.448;8.612;2023-05-17T06:55:05;23.10;41.30
1107;DHT22;540;49.448;8.612;2023-05-17T06:57:35;23.60;40.70
1107;DHT22;540;49.448;8.612;2023-05-17T07:00:03;24.00;39.80
1107;DHT22;540;49.448;8.612;2023-05-17T07:02:35;24.50;39.30
1107;DHT22;540;49.448;8.612;2023-05-17T07:05:04;24.80;38.50
1107;DHT22;540;49.448;8.612;2023-05-17T07:07:33;25.00;37.10
1107;DHT22;540;49.448;8.612;2023-05-17T07:10:02;24.90;37.20
1107;DHT22;540;49.448;8.612;2023-05-17T07:12:30;24.60;37.90
1107;DHT22;540;49.448;8.612;2023-05-17T07:14:58;24.40;38.00
1107;DHT22;540;49.448;8.612;2023-05-17T07:17:27;24.60;37.30
1107;DHT22;540;49.448;8.612;2023-05-17T07:19:55;24.40;36.70
1107;DHT22;540;49.448;8.612;2023-05-17T07:22:23;24.40;37.00
1107;DHT22;540;49.448;8.612;2023-05-17T07:24:51;23.50;38.00
1107;DHT22;540;49.448;8.612;2023-05-17T07:27:20;23.90;38.00
1107;DHT22;540;49.448;8.612;2023-05-17T07:29:48;23.80;37.00
1107;DHT22;540;49.448;8.612;2023-05-17T07:32:16;23.60;37.70
1107;DHT22;540;49.448;8.612;2023-05-17T07:34:44;23.60;37.70
1107;DHT22;540;49.448;8.612;2023-05-17T07:37:12;22.90;38.00
1107;DHT22;540;49.448;8.612;2023-05-17T07:39:40;22.40;39.30
1107;DHT22;540;49.448;8.612;2023-05-17T07:42:08;23.30;38.60
1107;DHT22;540;49.448;8.612;2023-05-17T07:44:39;24.10;37.00
1107;DHT22;540;49.448;8.612;2023-05-17T07:47:07;22.80;38.20
1107;DHT22;540;49.448;8.612;2023-05-17T07:49:35;21.20;41.70
1107;DHT22;540;49.448;8.612;2023-05-17T07:52:03;20.00;44.30
1107;DHT22;540;49.448;8.612;2023-05-17T07:54:31;19.10;46.10
1107;DHT22;540;49.448;8.612;2023-05-17T07:56:59;18.50;46.80
1107;DHT22;540;49.448;8.612;2023-05-17T07:59:27;18.20;48.00
1107;DHT22;540;49.448;8.612;2023-05-17T08:01:57;18.50;49.00
1107;DHT22;540;49.448;8.612;2023-05-17T08:04:28;18.40;48.20
1107;DHT22;540;49.448;8.612;2023-05-17T08:06:58;18.50;48.00
1107;DHT22;540;49.448;8.612;2023-05-17T08:09:28;18.50;48.10
1107;DHT22;540;49.448;8.612;2023-05-17T08:11:57;18.30;48.00
1107;DHT22;540;49.448;8.612;2023-05-17T08:14:28;18.00;49.10
1107;DHT22;540;49.448;8.612;2023-05-17T08:17:01;17.50;49.70
1107;DHT22;540;49.448;8.612;2023-05-17T08:19:31;17.50;50.00
1107;DHT22;540;49.448;8.612;2023-05-17T08:22:01;17.30;50.00
1107;DHT22;540;49.448;8.612;2023-05-17T08:24:31;17.10;50.00
1107;DHT22;540;49.448;8.612;2023-05-17T08:27:01;17.10;50.70
1107;DHT22;540;49.448;8.612;2023-05-17T08:29:30;16.50;50.60
1107;DHT22;540;49.448;8.612;2023-05-17T08:32:02;16.80;51.00
1107;DHT22;540;49.448;8.612;2023-05-17T08:34:32;16.90;51.80
1107;DHT22;540;49.448;8.612;2023-05-17T08:37:02;16.50;52.20
1107;DHT22;540;49.448;8.612;2023-05-17T08:39:32;16.70;52.90
1107;DHT22;540;49.448;8.612;2023-05-17T08:42:02;16.30;53.10
1107;DHT22;540;49.448;8.612;2023-05-17T08:44:35;16.60;53.90
1107;DHT22;540;49.448;8.612;2023-05-17T08:47:09;16.60;53.60
1107;DHT22;540;49.448;8.612;2023-05-17T08:49:39;17.10;52.30
1107;DHT22;540;49.448;8.612;2023-05-17T08:52:13;17.00;51.90
1107;DHT22;540;49.448;8.612;2023-05-17T08:54:43;17.50;51.20
1107;DHT22;540;49.448;8.612;2023-05-17T08:57:15;17.30;50.30
1107;DHT22;540;49.448;8.612;2023-05-17T08:59:45;16.90;50.50
1107;DHT22;540;49.448;8.612;2023-05-17T09:02:15;17.40;51.80
1107;DHT22;540;49.448;8.612;2023-05-17T09:04:43;17.20;51.80
1107;DHT22;540;49.448;8.612;2023-05-17T09:07:12;16.90;51.90
1107;DHT22;540;49.448;8.612;2023-05-17T09:09:42;17.00;51.70
1107;DHT22;540;49.448;8.612;2023-05-17T09:12:10;16.90;52.60
1107;DHT22;540;49.448;8.612;2023-05-17T09:14:38;17.10;52.20
1107;DHT22;540;49.448;8.612;2023-05-17T09:17:06;17.70;50.40
1107;DHT22;540;49.448;8.612;2023-05-17T09:19:42;17.50;50.10
1107;DHT22;540;49.448;8.612;2023-05-17T09:22:16;17.40;49.40
1107;DHT22;540;49.448;8.612;2023-05-17T09:24:44;17.10;50.00
1107;DHT22;540;49.448;8.612;2023-05-17T09:27:14;16.70;49.70
1107;DHT22;540;49.448;8.612;2023-05-17T09:29:43;16.90;51.00
1107;DHT22;540;49.448;8.612;2023-05-17T09:32:12;16.70;51.30
1107;DHT22;540;49.448;8.612;2023-05-17T09:34:43;16.70;51.80
1107;DHT22;540;49.448;8.612;2023-05-17T09:37:13;16.80;52.10
1107;DHT22;540;49.448;8.612;2023-05-17T09:39:41;16.40;51.80
1107;DHT22;540;49.448;8.612;2023-05-17T09:42:10;16.50;50.50
1107;DHT22;540;49.448;8.612;2023-05-17T09:44:45;16.30;50.20
1107;DHT22;540;49.448;8.612;2023-05-17T09:47:24;16.90;50.70
1107;DHT22;540;49.448;8.612;2023-05-17T09:49:55;17.10;49.60
1107;DHT22;540;49.448;8.612;2023-05-17T09:52:24;16.60;48.60
1107;DHT22;540;49.448;8.612;2023-05-17T09:54:53;17.10;49.50
1107;DHT22;540;49.448;8.612;2023-05-17T09:57:22;16.40;48.60
1107;DHT22;540;49.448;8.612;2023-05-17T09:59:50;16.80;49.60
1107;DHT22;540;49.448;8.612;2023-05-17T10:02:22;16.70;51.20
1107;DHT22;540;49.448;8.612;2023-05-17T10:04:56;16.50;50.70
1107;DHT22;540;49.448;8.612;2023-05-17T10:07:25;16.20;51.10
1107;DHT22;540;49.448;8.612;2023-05-17T10:09:53;16.30;51.90
1107;DHT22;540;49.448;8.612;2023-05-17T10:12:26;16.40;50.80
1107;DHT22;540;49.448;8.612;2023-05-17T10:14:55;16.90;50.50
1107;DHT22;540;49.448;8.612;2023-05-17T10:17:26;17.00;49.90
1107;DHT22;540;49.448;8.612;2023-05-17T10:19:57;17.20;49.50
1107;DHT22;540;49.448;8.612;2023-05-17T10:22:25;17.60;48.60
1107;DHT22;540;49.448;8.612;2023-05-17T10:24:55;17.10;48.00
1107;DHT22;540;49.448;8.612;2023-05-17T10:27:24;17.30;48.70
1107;DHT22;540;49.448;8.612;2023-05-17T10:29:52;17.80;49.20
1107;DHT22;540;49.448;8.612;2023-05-17T10:32:22;17.70;48.80
1107;DHT22;540;49.448;8.612;2023-05-17T10:34:53;17.70;48.30
1107;DHT22;540;49.448;8.612;2023-05-17T10:37:38;17.60;48.50
1107;DHT22;540;49.448;8.612;2023-05-17T10:40:08;17.10;48.10
1107;DHT22;540;49.448;8.612;2023-05-17T10:42:40;17.30;47.60
1107;DHT22;540;49.448;8.612;2023-05-17T10:45:10;17.30;47.80
1107;DHT22;540;49.448;8.612;2023-05-17T10:47:39;17.00;47.90
1107;DHT22;540;49.448;8.612;2023-05-17T10:50:09;17.40;48.80
1107;DHT22;540;49.448;8.612;2023-05-17T10:52:45;17.20;48.20
1107;DHT22;540;49.448;8.612;2023-05-17T10:57:41;16.90;48.10
1107;DHT22;540;49.448;8.612;2023-05-17T11:00:19;16.90;48.90
1107;DHT22;540;49.448;8.612;2023-05-17T11:02:48;16.80;49.30
1107;DHT22;540;49.448;8.612;2023-05-17T11:05:25;17.10;50.10
1107;DHT22;540;49.448;8.612;2023-05-17T11:08:11;17.10;49.40
1107;DHT22;540;49.448;8.612;2023-05-17T11:11:07;16.90;49.60
1107;DHT22;540;49.448;8.612;2023-05-17T11:13:43;17.20;49.90
1107;DHT22;540;49.448;8.612;2023-05-17T11:16:14;17.00;49.10
1107;DHT22;540;49.448;8.612;2023-05-17T11:18:47;17.00;48.70
1107;DHT22;540;49.448;8.612;2023-05-17T11:21:16;16.80;49.00
1107;DHT22;540;49.448;8.612;2023-05-17T11:23:46;17.30;49.50
1107;DHT22;540;49.448;8.612;2023-05-17T11:26:18;17.60;48.80
1107;DHT22;540;49.448;8.612;2023-05-17T11:28:47;17.70;48.20
1107;DHT22;540;49.448;8.612;2023-05-17T11:31:15;17.70;46.70
1107;DHT22;540;49.448;8.612;2023-05-17T11:33:44;18.50;46.50
1107;DHT22;540;49.448;8.612;2023-05-17T11:36:21;19.20;45.20
1107;DHT22;540;49.448;8.612;2023-05-17T11:39:09;20.10;43.70
1107;DHT22;540;49.448;8.612;2023-05-17T11:41:38;20.70;40.90
1107;DHT22;540;49.448;8.612;2023-05-17T11:44:07;21.10;39.90
1107;DHT22;540;49.448;8.612;2023-05-17T11:46:36;20.90;39.60
1107;DHT22;540;49.448;8.612;2023-05-17T11:49:05;20.70;38.80
1107;DHT22;540;49.448;8.612;2023-05-17T11:51:33;20.50;39.90
1107;DHT22;540;49.448;8.612;2023-05-17T11:54:05;20.30;40.10
1107;DHT22;540;49.448;8.612;2023-05-17T11:56:34;19.80;40.50
1107;DHT22;540;49.448;8.612;2023-05-17T11:59:09;19.40;40.30
1107;DHT22;540;49.448;8.612;2023-05-17T12:01:45;19.30;41.70
1107;DHT22;540;49.448;8.612;2023-05-17T12:04:13;19.00;42.10
1107;DHT22;540;49.448;8.612;2023-05-17T12:06:49;19.20;41.80
1107;DHT22;540;49.448;8.612;2023-05-17T12:09:18;19.30;41.60
1107;DHT22;540;49.448;8.612;2023-05-17T12:11:46;19.60;42.10
1107;DHT22;540;49.448;8.612;2023-05-17T12:14:14;19.60;40.20
1107;DHT22;540;49.448;8.612;2023-05-17T12:16:44;19.90;39.80
1107;DHT22;540;49.448;8.612;2023-05-17T12:19:17;19.80;39.20
1107;DHT22;540;49.448;8.612;2023-05-17T12:21:46;20.10;38.50
1107;DHT22;540;49.448;8.612;2023-05-17T12:24:14;20.30;38.90
1107;DHT22;540;49.448;8.612;2023-05-17T12:26:44;20.30;39.20
1107;DHT22;540;49.448;8.612;2023-05-17T12:29:13;20.10;39.40
1107;DHT22;540;49.448;8.612;2023-05-17T12:31:46;19.80;40.20
1107;DHT22;540;49.448;8.612;2023-05-17T12:34:16;20.10;40.30
1107;DHT22;540;49.448;8.612;2023-05-17T12:36:44;20.20;40.30
1107;DHT22;540;49.448;8.612;2023-05-17T12:39:13;20.30;39.90
1107;DHT22;540;49.448;8.612;2023-05-17T12:41:44;20.70;39.80
1107;DHT22;540;49.448;8.612;2023-05-17T12:44:12;20.40;39.90
1107;DHT22;540;49.448;8.612;2023-05-17T12:46:42;20.20;39.60
1107;DHT22;540;49.448;8.612;2023-05-17T12:49:11;20.20;39.80
1107;DHT22;540;49.448;8.612;2023-05-17T12:51:39;20.20;38.80
1107;DHT22;540;49.448;8.612;2023-05-17T12:54:09;20.50;39.00
1107;DHT22;540;49.448;8.612;2023-05-17T12:56:40;19.90;38.40
1107;DHT22;540;49.448;8.612;2023-05-17T12:59:12;20.50;38.50
1107;DHT22;540;49.448;8.612;2023-05-17T13:01:43;20.70;38.70
1107;DHT22;540;49.448;8.612;2023-05-17T13:04:12;20.60;37.90
1107;DHT22;540;49.448;8.612;2023-05-17T13:06:44;20.70;37.40
1107;DHT22;540;49.448;8.612;2023-05-17T13:09:12;20.70;37.10
1107;DHT22;540;49.448;8.612;2023-05-17T13:11:41;21.00;37.70
1107;DHT22;540;49.448;8.612;2023-05-17T13:14:09;20.50;36.40
1107;DHT22;540;49.448;8.612;2023-05-17T13:16:39;20.80;37.10
1107;DHT22;540;49.448;8.612;2023-05-17T13:19:12;20.80;37.70
1107;DHT22;540;49.448;8.612;2023-05-17T13:21:41;20.90;38.40
1107;DHT22;540;49.448;8.612;2023-05-17T13:24:08;21.00;38.30
1107;DHT22;540;49.448;8.612;2023-05-17T13:26:37;20.60;38.00
1107;DHT22;540;49.448;8.612;2023-05-17T13:29:04;21.10;38.70
1107;DHT22;540;49.448;8.612;2023-05-17T13:31:32;20.50;38.70
1107;DHT22;540;49.448;8.612;2023-05-17T13:34:01;20.50;38.10
1107;DHT22;540;49.448;8.612;2023-05-17T13:36:29;20.30;38.30
1107;DHT22;540;49.448;8.612;2023-05-17T13:38:57;20.80;38.70
1107;DHT22;540;49.448;8.612;2023-05-17T13:41:27;20.80;37.60
1107;DHT22;540;49.448;8.612;2023-05-17T13:43:55;21.00;37.70
1107;DHT22;540;49.448;8.612;2023-05-17T13:46:24;20.90;37.90
1107;DHT22;540;49.448;8.612;2023-05-17T13:48:52;20.60;38.20
1107;DHT22;540;49.448;8.612;2023-05-17T13:51:21;20.60;38.50
1107;DHT22;540;49.448;8.612;2023-05-17T13:53:51;20.50;38.50
1107;DHT22;540;49.448;8.612;2023-05-17T13:56:18;20.60;38.40
1107;DHT22;540;49.448;8.612;2023-05-17T13:58:48;20.60;38.60
1107;DHT22;540;49.448;8.612;2023-05-17T14:01:15;20.60;38.20
1107;DHT22;540;49.448;8.612;2023-05-17T14:03:44;20.60;38.50
1107;DHT22;540;49.448;8.612;2023-05-17T14:06:12;20.60;37.70
1107;DHT22;540;49.448;8.612;2023-05-17T14:08:41;20.50;37.30
1107;DHT22;540;49.448;8.612;2023-05-17T14:11:10;20.80;37.80
1107;DHT22;540;49.448;8.612;2023-05-17T14:13:38;20.80;37.30
1107;DHT22;540;49.448;8.612;2023-05-17T14:16:06;20.20;37.60
1107;DHT22;540;49.448;8.612;2023-05-17T14:18:34;19.70;39.20
1107;DHT22;540;49.448;8.612;2023-05-17T14:21:02;19.20;40.40
1107;DHT22;540;49.448;8.612;2023-05-17T14:23:30;18.90;41.00
1107;DHT22;540;49.448;8.612;2023-05-17T14:26:01;18.70;41.30
1107;DHT22;540;49.448;8.612;2023-05-17T14:28:33;18.90;42.00
1107;DHT22;540;49.448;8.612;2023-05-17T14:31:03;19.10;42.20
1107;DHT22;540;49.448;8.612;2023-05-17T14:33:31;19.40;41.50
1107;DHT22;540;49.448;8.612;2023-05-17T14:35:59;19.80;41.50
1107;DHT22;540;49.448;8.612;2023-05-17T14:38:27;20.10;40.30
1107;DHT22;540;49.448;8.612;2023-05-17T14:40:55;20.30;39.80
1107;DHT22;540;49.448;8.612;2023-05-17T14:43:24;20.20;38.20
1107;DHT22;540;49.448;8.612;2023-05-17T14:45:52;20.20;38.60
1107;DHT22;540;49.448;8.612;2023-05-17T14:48:20;20.40;37.80
1107;DHT22;540;49.448;8.612;2023-05-17T14:50:48;20.40;39.00
1107;DHT22;540;49.448;8.612;2023-05-17T14:53:16;20.30;40.60
1107;DHT22;540;49.448;8.612;2023-05-17T14:55:44;20.30;40.80
1107;DHT22;540;49.448;8.612;2023-05-17T14:58:13;20.30;41.20
1107;DHT22;540;49.448;8.612;2023-05-17T15:00:42;20.10;40.40
1107;DHT22;540;49.448;8.612;2023-05-17T15:03:16;19.70;39.70
1107;DHT22;540;49.448;8.612;2023-05-17T15:05:52;19.50;41.30
1107;DHT22;540;49.448;8.612;2023-05-17T15:08:20;19.00;41.50
1107;DHT22;540;49.448;8.612;2023-05-17T15:10:49;19.10;41.60
1107;DHT22;540;49.448;8.612;2023-05-17T15:13:17;19.10;42.00
1107;DHT22;540;49.448;8.612;2023-05-17T15:15:46;19.10;41.90
1107;DHT22;540;49.448;8.612;2023-05-17T15:18:14;18.90;41.90
1107;DHT22;540;49.448;8.612;2023-05-17T15:20:42;18.50;41.80
1107;DHT22;540;49.448;8.612;2023-05-17T15:23:09;18.90;42.00
1107;DHT22;540;49.448;8.612;2023-05-17T15:25:37;18.80;42.60
1107;DHT22;540;49.448;8.612;2023-05-17T15:28:05;18.90;42.10
1107;DHT22;540;49.448;8.612;2023-05-17T15:30:33;18.70;42.10
1107;DHT22;540;49.448;8.612;2023-05-17T15:33:03;18.40;41.90
1107;DHT22;540;49.448;8.612;2023-05-17T15:35:31;18.40;43.20
1107;DHT22;540;49.448;8.612;2023-05-17T15:38:02;18.70;43.50
1107;DHT22;540;49.448;8.612;2023-05-17T15:40:32;18.60;42.30
1107;DHT22;540;49.448;8.612;2023-05-17T15:43:00;18.90;41.80
1107;DHT22;540;49.448;8.612;2023-05-17T15:45:28;18.50;41.10
1107;DHT22;540;49.448;8.612;2023-05-17T15:47:57;19.00;41.00
1107;DHT22;540;49.448;8.612;2023-05-17T15:50:28;18.90;40.90
1107;DHT22;540;49.448;8.612;2023-05-17T15:52:56;18.90;41.40
1107;DHT22;540;49.448;8.612;2023-05-17T15:55:27;18.80;41.60
1107;DHT22;540;49.448;8.612;2023-05-17T15:57:55;19.00;41.50
1107;DHT22;540;49.448;8.612;2023-05-17T16:00:23;18.40;40.60
1107;DHT22;540;49.448;8.612;2023-05-17T16:02:51;18.40;41.70
1107;DHT22;540;49.448;8.612;2023-05-17T16:05:19;18.20;42.60
1107;DHT22;540;49.448;8.612;2023-05-17T16:07:49;18.40;42.10
1107;DHT22;540;49.448;8.612;2023-05-17T16:10:17;18.10;41.90
1107;DHT22;540;49.448;8.612;2023-05-17T16:12:45;18.10;41.40
1107;DHT22;540;49.448;8.612;2023-05-17T16:15:14;18.00;40.90
1107;DHT22;540;49.448;8.612;2023-05-17T16:17:42;18.20;41.30
1107;DHT22;540;49.448;8.612;2023-05-17T16:20:11;17.90;41.70
1107;DHT22;540;49.448;8.612;2023-05-17T16:22:41;18.10;41.30
1107;DHT22;540;49.448;8.612;2023-05-17T16:25:14;17.90;40.60
1107;DHT22;540;49.448;8.612;2023-05-17T16:27:43;18.10;40.50
1107;DHT22;540;49.448;8.612;2023-05-17T16:30:11;17.90;39.90
1107;DHT22;540;49.448;8.612;2023-05-17T16:32:39;18.30;39.20
1107;DHT22;540;49.448;8.612;2023-05-17T16:35:08;17.60;38.20
1107;DHT22;540;49.448;8.612;2023-05-17T16:37:36;18.00;38.60